createdAt,value
2019-03-04T09:00:33.489Z,62.29
2019-03-04T09:01:26.736Z,62.59
2019-03-04T09:02:26.801Z,63.31
2019-03-04T09:03:26.709Z,65.05
2019-03-04T09:04:26.701Z,63.82
2019-03-04T09:05:26.688Z,64.03
2019-03-04T09:06:26.677Z,63.62
2019-03-04T09:07:26.700Z,63.62
2019-03-04T09:08:26.663Z,63.21
2019-03-04T09:09:26.646Z,63.21
2019-03-04T09:10:26.637Z,61.88
2019-03-04T09:11:26.622Z,62.29
2019-03-04T09:12:26.656Z,62.36
2019-03-04T09:13:26.601Z,62.77
2019-03-04T09:14:26.633Z,62.66
2019-03-04T09:15:26.580Z,63.51
2019-03-04T09:16:26.573Z,62.29
2019-03-04T09:17:26.580Z,60.88
2019-03-04T09:18:26.557Z,60.65
2019-03-04T09:19:26.538Z,60.55
2019-03-04T09:20:26.546Z,61.06
2019-03-04T09:21:26.513Z,60.75
2019-03-04T09:22:26.529Z,62.01
2019-03-04T09:23:26.489Z,61.80
2019-03-04T09:24:26.515Z,61.98
2019-03-04T09:25:30.548Z,61.57
2019-03-04T09:26:26.459Z,62.29
2019-03-04T09:27:26.482Z,61.70
2019-03-04T09:28:26.434Z,61.88
2019-03-04T09:29:26.426Z,61.67
2019-03-04T09:30:26.412Z,61.88
2019-03-04T09:31:26.402Z,61.57
2019-03-04T09:32:26.445Z,61.98
2019-03-04T09:33:26.400Z,63.62
2019-03-04T09:34:26.370Z,63.21
2019-03-04T09:35:26.374Z,62.80
2019-03-04T09:36:26.349Z,62.29
2019-03-04T09:37:26.355Z,61.67
2019-03-04T09:38:26.347Z,61.57
2019-03-04T09:39:26.311Z,61.57
2019-03-04T09:40:26.317Z,63.21
2019-03-04T09:41:26.289Z,62.80
2019-03-04T09:42:26.278Z,62.70
2019-03-04T09:43:26.292Z,62.80
2019-03-04T09:44:26.278Z,61.57
2019-03-04T09:45:26.244Z,61.77
2019-03-04T09:46:26.271Z,61.65
2019-03-04T09:47:26.226Z,61.75
2019-03-04T09:48:26.247Z,60.93
2019-03-04T09:49:26.200Z,61.34
2019-03-04T09:50:26.193Z,62.05
2019-03-04T09:51:26.177Z,61.95
2019-03-04T09:52:26.168Z,60.80
2019-03-04T09:53:26.203Z,60.90
2019-03-04T09:54:26.145Z,61.13
2019-03-04T09:55:26.135Z,61.13
2019-03-04T09:56:26.126Z,61.21
2019-03-04T09:57:26.112Z,62.23
2019-03-04T09:58:26.124Z,63.59
2019-03-04T09:59:26.094Z,63.59
2019-03-04T10:00:26.092Z,63.59
2019-03-04T10:01:26.069Z,63.79
2019-03-04T10:02:26.065Z,63.48
2019-03-04T10:03:26.064Z,64.10
2019-03-04T10:04:26.039Z,64.92
2019-03-04T10:05:26.024Z,63.56
2019-03-04T10:06:26.011Z,63.66
2019-03-04T10:07:26.031Z,62.63
2019-03-04T10:08:32.904Z,62.10
2019-03-04T10:09:27.028Z,62.30
2019-03-04T10:10:25.968Z,63.32
2019-03-04T10:11:25.962Z,64.24
2019-03-04T10:12:25.945Z,64.34
2019-03-04T10:13:25.968Z,62.74
2019-03-04T10:14:25.924Z,63.45
2019-03-04T10:15:25.942Z,63.28
2019-03-04T10:16:25.909Z,64.78
2019-03-04T10:17:25.897Z,64.27
2019-03-04T10:18:25.900Z,65.19
2019-03-04T10:19:25.864Z,64.68
2019-03-04T10:20:25.878Z,64.37
2019-03-04T10:21:25.845Z,63.35
2019-03-04T10:22:25.839Z,63.56
2019-03-04T10:23:25.849Z,62.23
2019-03-04T10:24:25.826Z,62.95
2019-03-04T10:25:25.814Z,63.25
2019-03-04T10:26:25.789Z,63.35
2019-03-04T10:27:25.819Z,62.74
2019-03-04T10:28:25.765Z,63.66
2019-03-04T10:29:25.775Z,64.17
2019-03-04T10:30:25.765Z,63.07
2019-03-04T10:31:25.732Z,62.84
2019-03-04T10:32:25.719Z,64.20
2019-03-04T10:33:25.711Z,64.07
2019-03-04T10:34:25.728Z,64.78
2019-03-04T10:35:25.717Z,64.89
2019-03-04T10:36:25.686Z,63.93
2019-03-04T10:37:25.664Z,64.45
2019-03-04T10:38:25.654Z,64.45
2019-03-04T10:39:25.673Z,63.93
2019-03-04T10:40:25.633Z,63.12
2019-03-04T10:41:25.627Z,63.02
2019-03-04T10:42:25.608Z,62.61
2019-03-04T10:43:25.654Z,63.40
2019-03-04T10:44:25.610Z,62.17
2019-03-04T10:45:25.576Z,62.27
2019-03-04T10:46:25.574Z,62.78
2019-03-04T10:47:25.561Z,63.29
2019-03-04T10:48:25.546Z,63.09
2019-03-04T10:49:25.573Z,63.19
2019-03-04T10:50:25.521Z,63.37
2019-03-04T10:51:25.540Z,63.47
2019-03-04T10:52:25.505Z,62.24
2019-03-04T10:53:25.486Z,62.76
2019-03-04T10:54:25.474Z,63.67
2019-03-04T10:55:25.486Z,62.82
2019-03-04T10:56:25.464Z,61.94
2019-03-04T10:57:25.442Z,62.55
2019-03-04T10:58:25.433Z,63.16
2019-03-04T10:59:25.429Z,62.65
2019-03-04T11:00:26.969Z,62.32
2019-03-04T11:01:30.320Z,62.93
2019-03-04T11:02:26.419Z,62.42
2019-03-04T11:03:25.374Z,62.42
2019-03-04T11:04:25.416Z,62.11
2019-03-04T11:05:25.386Z,62.01
2019-03-04T11:06:25.342Z,62.42
2019-03-04T11:07:25.331Z,62.18
2019-03-04T11:08:25.328Z,61.57
2019-03-04T11:09:25.322Z,61.80
2019-03-04T11:10:25.318Z,60.86
2019-03-04T11:11:29.950Z,61.47
2019-03-04T11:12:25.273Z,61.98
2019-03-04T11:13:25.264Z,62.18
2019-03-04T11:14:25.264Z,61.54
2019-03-04T11:15:25.305Z,61.54
2019-03-04T11:16:25.226Z,60.83
2019-03-04T11:17:25.221Z,60.86
2019-03-04T11:18:25.218Z,60.45
2019-03-04T11:19:25.208Z,61.37
2019-03-04T11:20:25.208Z,61.54
2019-03-04T11:21:25.200Z,61.21
2019-03-04T11:22:25.162Z,61.49
2019-03-04T11:23:25.197Z,61.49
2019-03-04T11:24:25.151Z,60.24
2019-03-04T11:25:25.258Z,60.68
2019-03-04T11:26:25.118Z,60.85
2019-03-04T11:27:25.199Z,60.88
2019-03-04T11:28:25.102Z,60.03
2019-03-04T11:29:25.093Z,59.66
2019-03-04T11:30:28.475Z,60.14
2019-03-04T11:31:25.074Z,59.83
2019-03-04T11:32:25.054Z,58.92
2019-03-04T11:33:25.042Z,58.81
2019-03-04T11:34:25.033Z,59.42
2019-03-04T11:35:25.072Z,58.28
2019-03-04T11:36:25.005Z,57.59
2019-03-04T11:37:25.003Z,57.92
2019-03-04T11:38:24.991Z,59.05
2019-03-04T11:39:24.977Z,58.84
2019-03-04T11:40:24.989Z,59.66
2019-03-04T11:41:24.959Z,58.97
2019-03-04T11:42:24.943Z,59.51
2019-03-04T11:43:24.963Z,60.32
2019-03-04T11:44:24.927Z,59.23
2019-03-04T11:45:24.943Z,60.05
2019-03-04T11:46:24.956Z,60.83
2019-03-04T11:47:24.887Z,60.53
2019-03-04T11:48:24.878Z,61.41
2019-03-04T11:49:24.897Z,60.68
2019-03-04T11:50:24.883Z,58.94
2019-03-04T11:51:24.840Z,59.32
2019-03-04T11:52:24.832Z,59.05
2019-03-04T11:53:24.820Z,58.76
2019-03-04T11:54:24.814Z,59.68
2019-03-04T11:55:24.823Z,58.39
2019-03-04T11:56:24.820Z,60.63
2019-03-04T11:57:24.803Z,61.34
2019-03-04T11:58:24.768Z,61.14
2019-03-04T11:59:24.756Z,61.34
2019-03-04T12:00:24.747Z,61.54
2019-03-04T12:01:24.763Z,60.55
2019-03-04T12:02:24.748Z,60.28
2019-03-04T12:03:24.710Z,61.60
2019-03-04T12:04:24.701Z,60.44
2019-03-04T12:05:24.700Z,61.49
2019-03-04T12:06:24.712Z,61.90
2019-03-04T12:07:24.666Z,63.32
2019-03-04T12:08:24.672Z,65.67
2019-03-04T12:09:24.658Z,67.54
2019-03-04T12:10:24.636Z,69.42
2019-03-04T12:11:24.644Z,70.47
2019-03-04T12:12:24.619Z,70.91
2019-03-04T12:13:24.598Z,73.20
2019-03-04T12:14:24.593Z,75.18
2019-03-04T12:15:24.576Z,81.28
2019-03-04T12:16:24.600Z,84.23
2019-03-04T12:17:24.555Z,86.68
2019-03-04T12:18:24.541Z,87.65
2019-03-04T12:19:24.532Z,87.54
2019-03-04T12:20:24.523Z,88.51
2019-03-04T12:21:24.531Z,87.79
2019-03-04T12:22:24.514Z,87.17
2019-03-04T12:23:24.496Z,87.07
2019-03-04T12:24:24.479Z,86.15
2019-03-04T12:25:24.464Z,85.36
2019-03-04T12:26:24.479Z,86.70
2019-03-04T12:27:24.451Z,86.87
2019-03-04T12:28:24.446Z,87.38
2019-03-04T12:29:24.422Z,86.76
2019-03-04T12:30:24.410Z,85.63
2019-03-04T12:31:24.422Z,86.15
2019-03-04T12:32:24.392Z,84.70
2019-03-04T12:33:24.375Z,85.52
2019-03-04T12:34:25.060Z,85.22
2019-03-04T12:35:24.356Z,84.77
2019-03-04T12:36:24.365Z,84.25
2019-03-04T12:37:24.339Z,82.50
2019-03-04T12:38:24.345Z,83.22
2019-03-04T12:39:24.308Z,82.91
2019-03-04T12:40:24.319Z,82.70
2019-03-04T12:41:24.287Z,82.09
2019-03-04T12:42:24.299Z,82.19
2019-03-04T12:43:24.269Z,81.33
2019-03-04T12:44:24.307Z,82.35
2019-03-04T12:45:33.658Z,82.01
2019-03-04T12:46:25.263Z,81.81
2019-03-04T12:47:24.243Z,79.79
2019-03-04T12:48:24.213Z,80.05
2019-03-04T12:49:24.201Z,80.05
2019-03-04T12:50:24.187Z,78.82
2019-03-04T12:51:24.182Z,78.00
2019-03-04T12:52:24.191Z,78.10
2019-03-04T12:53:24.187Z,77.17
2019-03-04T12:54:24.148Z,77.69
2019-03-04T12:55:24.132Z,77.58
2019-03-04T12:56:24.123Z,76.21
2019-03-04T12:57:24.135Z,76.01
2019-03-04T12:58:24.106Z,75.70
2019-03-04T12:59:24.102Z,75.67
2019-03-04T13:00:24.079Z,75.35
2019-03-04T13:01:24.072Z,76.28
2019-03-04T13:02:24.079Z,76.18
2019-03-04T13:03:24.055Z,75.46
2019-03-04T13:04:24.062Z,76.11
2019-03-04T13:05:24.024Z,75.94
2019-03-04T13:06:24.026Z,76.52
2019-03-04T13:07:24.022Z,77.03
2019-03-04T13:08:24.005Z,76.11
2019-03-04T13:09:23.984Z,75.29
2019-03-04T13:10:23.981Z,74.57
2019-03-04T13:11:23.960Z,74.98
2019-03-04T13:12:24.007Z,75.18
2019-03-04T13:13:23.937Z,75.25
2019-03-04T13:14:23.946Z,74.74
2019-03-04T13:15:23.917Z,74.84
2019-03-04T13:16:23.908Z,75.56
2019-03-04T13:17:23.902Z,75.04
2019-03-04T13:18:23.937Z,74.29
2019-03-04T13:19:23.880Z,74.40
2019-03-04T13:20:23.861Z,75.12
2019-03-04T13:21:23.844Z,73.27
2019-03-04T13:22:23.840Z,74.29
2019-03-04T13:23:23.881Z,73.88
2019-03-04T13:24:23.820Z,73.88
2019-03-04T13:25:23.799Z,74.05
2019-03-04T13:26:23.802Z,73.68
2019-03-04T13:27:24.195Z,73.85
2019-03-04T13:28:23.787Z,74.19
2019-03-04T13:29:23.766Z,74.46
2019-03-04T13:30:23.753Z,73.54
2019-03-04T13:31:23.729Z,73.27
2019-03-04T13:32:23.734Z,73.23
2019-03-04T13:33:23.734Z,73.47
2019-03-04T13:34:23.697Z,73.27
2019-03-04T13:35:24.801Z,73.57
2019-03-04T13:36:23.725Z,73.68
2019-03-04T13:37:23.670Z,73.27
2019-03-04T13:38:23.676Z,73.68
2019-03-04T13:39:23.642Z,72.78
2019-03-04T13:40:23.629Z,73.19
2019-03-04T13:41:23.622Z,73.16
2019-03-04T13:42:23.607Z,73.98
2019-03-04T13:43:23.674Z,73.57
2019-03-04T13:44:23.586Z,73.57
2019-03-04T13:45:23.577Z,73.68
2019-03-04T13:46:23.568Z,74.19
2019-03-04T13:47:23.553Z,73.57
2019-03-04T13:48:23.566Z,73.57
2019-03-04T13:49:23.573Z,73.36
2019-03-04T13:50:23.543Z,73.44
2019-03-04T13:51:23.508Z,72.75
2019-03-04T13:52:23.499Z,71.89
2019-03-04T13:53:23.486Z,72.13
2019-03-04T13:54:23.509Z,71.72
2019-03-04T13:55:23.503Z,71.38
2019-03-04T13:56:23.453Z,70.97
2019-03-04T13:57:23.439Z,70.56
2019-03-04T13:58:23.436Z,69.77
2019-03-04T13:59:23.447Z,69.23
2019-03-04T14:00:23.412Z,70.15
2019-03-04T14:01:24.580Z,69.29
2019-03-04T14:02:23.390Z,70.01
2019-03-04T14:03:23.381Z,69.70
2019-03-04T14:04:23.399Z,68.44
2019-03-04T14:05:23.361Z,67.93
2019-03-04T14:06:23.339Z,66.49
2019-03-04T14:07:23.364Z,68.00
2019-03-04T14:08:23.322Z,67.69
2019-03-04T14:09:23.345Z,66.36
2019-03-04T14:10:23.294Z,66.77
2019-03-04T14:11:23.285Z,67.08
2019-03-04T14:12:23.275Z,67.18
2019-03-04T14:13:23.296Z,68.10
2019-03-04T14:14:23.281Z,66.90
2019-03-04T14:15:23.247Z,66.63
2019-03-04T14:16:23.227Z,67.14
2019-03-04T14:17:23.227Z,67.44
2019-03-04T14:18:23.207Z,67.72
2019-03-04T14:19:23.233Z,68.75
2019-03-04T14:20:23.191Z,68.96
2019-03-04T14:21:23.191Z,67.52
2019-03-04T14:22:23.162Z,67.11
2019-03-04T14:23:23.150Z,66.97
2019-03-04T14:24:23.164Z,66.39
2019-03-04T14:25:23.145Z,66.60
2019-03-04T14:26:23.120Z,67.18
2019-03-04T14:27:23.109Z,65.74
2019-03-04T14:28:23.102Z,65.06
2019-03-04T14:29:23.108Z,65.06
2019-03-04T14:30:23.075Z,65.26
2019-03-04T14:31:23.114Z,66.28
2019-03-04T14:32:23.051Z,65.57
2019-03-04T14:33:23.038Z,65.47
2019-03-04T14:34:23.030Z,65.39
2019-03-04T14:35:23.042Z,64.98
2019-03-04T14:36:23.015Z,66.22
2019-03-04T14:37:23.033Z,66.22
2019-03-04T14:38:22.985Z,66.63
2019-03-04T14:39:22.973Z,67.41
2019-03-04T14:40:22.988Z,67.55
2019-03-04T14:41:22.955Z,68.27
2019-03-04T14:42:22.939Z,67.35
2019-03-04T14:43:22.952Z,67.86
2019-03-04T14:44:22.917Z,66.35
2019-03-04T14:45:22.928Z,66.83
2019-03-04T14:46:22.896Z,65.60
2019-03-04T14:47:22.888Z,66.01
2019-03-04T14:48:22.871Z,66.55
2019-03-04T14:49:22.909Z,66.83
2019-03-04T14:50:22.873Z,67.14
2019-03-04T14:51:22.837Z,66.28
2019-03-04T14:52:22.831Z,66.31
2019-03-04T14:53:22.820Z,66.80
2019-03-04T14:54:22.804Z,65.26
2019-03-04T14:55:22.848Z,65.36
2019-03-04T14:56:22.918Z,66.08
2019-03-04T14:57:22.778Z,66.19
2019-03-04T14:58:22.760Z,66.19
2019-03-04T14:59:22.749Z,65.80
2019-03-04T15:00:22.761Z,65.47
2019-03-04T15:01:22.738Z,65.50
2019-03-04T15:02:22.721Z,65.39
2019-03-04T15:03:23.856Z,64.88
2019-03-04T15:04:22.706Z,65.19
2019-03-04T15:05:22.708Z,65.09
2019-03-04T15:06:22.675Z,64.98
2019-03-04T15:07:22.716Z,65.50
2019-03-04T15:08:22.648Z,65.19
2019-03-04T15:09:22.639Z,65.70
2019-03-04T15:10:22.649Z,65.39
2019-03-04T15:11:22.615Z,65.39
2019-03-04T15:12:22.605Z,64.78
2019-03-04T15:13:22.620Z,65.09
2019-03-04T15:14:22.581Z,65.50
2019-03-04T15:15:22.599Z,65.50
2019-03-04T15:16:22.558Z,65.60
2019-03-04T15:17:22.555Z,65.80
2019-03-04T15:18:22.537Z,65.36
2019-03-04T15:19:22.553Z,65.50
2019-03-04T15:20:22.538Z,64.75
2019-03-04T15:21:22.504Z,65.16
2019-03-04T15:22:22.493Z,64.23
2019-03-04T15:23:22.485Z,64.67
2019-03-04T15:24:22.472Z,64.23
2019-03-04T15:25:22.520Z,64.88
2019-03-04T15:26:22.447Z,64.23
2019-03-04T15:27:22.441Z,64.47
2019-03-04T15:28:22.425Z,64.47
2019-03-04T15:29:22.416Z,62.93
2019-03-04T15:30:22.430Z,63.24
2019-03-04T15:31:22.414Z,63.03
2019-03-04T15:32:22.710Z,63.44
2019-03-04T15:33:22.418Z,63.54
2019-03-04T15:34:22.364Z,63.54
2019-03-04T15:35:22.377Z,63.54
2019-03-04T15:36:22.364Z,64.26
2019-03-04T15:37:22.340Z,63.03
2019-03-04T15:38:22.315Z,63.96
2019-03-04T15:39:23.346Z,62.93
2019-03-04T15:40:22.296Z,62.73
2019-03-04T15:41:22.305Z,62.83
2019-03-04T15:42:22.271Z,63.03
2019-03-04T15:43:22.281Z,63.03
2019-03-04T15:44:22.248Z,62.21
2019-03-04T15:45:22.240Z,62.62
2019-03-04T15:46:22.248Z,62.49
2019-03-04T15:47:22.216Z,62.52
2019-03-04T15:48:22.209Z,62.41
2019-03-04T15:49:22.194Z,62.41
2019-03-04T15:50:22.201Z,62.21
2019-03-04T15:51:22.199Z,62.62
2019-03-04T15:52:22.162Z,62.31
2019-03-04T15:53:22.149Z,62.01
2019-03-04T15:54:22.137Z,60.57
2019-03-04T15:55:22.131Z,60.64
2019-03-04T15:56:22.138Z,60.33
2019-03-04T15:57:22.119Z,60.03
2019-03-04T15:58:22.091Z,60.61
2019-03-04T15:59:22.082Z,60.00
2019-03-04T16:00:22.069Z,60.10
2019-03-04T16:01:22.084Z,61.02
2019-03-04T16:02:22.049Z,58.77
2019-03-04T16:03:22.056Z,59.18
2019-03-04T16:04:22.027Z,59.08
2019-03-04T16:05:22.018Z,58.84
2019-03-04T16:06:22.026Z,59.56
2019-03-04T16:07:21.993Z,59.36
2019-03-04T16:08:21.981Z,59.25
2019-03-04T16:09:21.988Z,58.74
2019-03-04T16:10:21.974Z,58.56
2019-03-04T16:11:21.974Z,57.64
2019-03-04T16:12:22.009Z,58.97
2019-03-04T16:13:21.925Z,57.64
2019-03-04T16:14:21.917Z,58.15
2019-03-04T16:15:21.938Z,58.26
2019-03-04T16:16:21.926Z,57.43
2019-03-04T16:17:21.880Z,57.64
2019-03-04T16:18:21.898Z,57.43
2019-03-04T16:19:23.603Z,58.26
2019-03-04T16:20:21.858Z,58.15
2019-03-04T16:21:21.860Z,58.07
2019-03-04T16:22:21.862Z,57.33
2019-03-04T16:23:21.816Z,58.26
2019-03-04T16:24:21.802Z,57.26
2019-03-04T16:25:21.793Z,57.95
2019-03-04T16:26:21.787Z,57.15
2019-03-04T16:27:21.805Z,57.87
2019-03-04T16:28:21.795Z,57.87
2019-03-04T16:29:21.753Z,57.26
2019-03-04T16:30:21.738Z,57.36
2019-03-04T16:31:21.729Z,57.77
2019-03-04T16:32:21.756Z,58.49
2019-03-04T16:33:21.703Z,57.67
2019-03-04T16:34:21.708Z,59.11
2019-03-04T16:35:21.684Z,59.72
2019-03-04T16:36:21.676Z,59.52
2019-03-04T16:37:21.681Z,59.82
2019-03-04T16:38:21.649Z,59.52
2019-03-04T16:39:21.656Z,59.41
2019-03-04T16:40:21.650Z,59.75
2019-03-04T16:41:21.616Z,59.23
2019-03-04T16:42:21.628Z,59.47
2019-03-04T16:43:21.599Z,60.80
2019-03-04T16:44:21.582Z,60.80
2019-03-04T16:45:21.569Z,61.11
2019-03-04T16:46:21.618Z,61.62
2019-03-04T16:47:21.576Z,61.62
2019-03-04T16:48:21.549Z,61.96
2019-03-04T16:49:21.525Z,62.06
2019-03-04T16:50:21.514Z,61.44
2019-03-04T16:51:21.512Z,61.86
2019-03-04T16:52:21.544Z,62.06
2019-03-04T16:53:21.488Z,62.48
2019-03-04T16:54:21.473Z,62.27
2019-03-04T16:55:21.458Z,62.71
2019-03-04T16:56:21.454Z,63.84
2019-03-04T16:57:21.463Z,64.04
2019-03-04T16:58:21.448Z,63.64
2019-03-04T16:59:21.420Z,64.25
2019-03-04T17:00:21.430Z,64.04
2019-03-04T17:01:21.398Z,64.36
2019-03-04T17:02:21.380Z,64.07
2019-03-04T17:03:21.437Z,64.48
2019-03-04T17:04:21.373Z,64.28
2019-03-04T17:05:21.353Z,64.39
2019-03-04T17:06:21.337Z,64.59
2019-03-04T17:07:21.325Z,64.48
2019-03-04T17:08:21.336Z,64.69
2019-03-04T17:09:21.302Z,65.00
2019-03-04T17:10:21.318Z,65.31
2019-03-04T17:11:21.280Z,65.72
2019-03-04T17:12:21.276Z,65.55
2019-03-04T17:13:21.281Z,65.62
2019-03-04T17:14:21.246Z,65.75
2019-03-04T17:15:21.250Z,65.86
2019-03-04T17:16:21.239Z,65.65
2019-03-04T17:17:21.211Z,65.68
2019-03-04T17:18:21.228Z,65.86
2019-03-04T17:19:21.189Z,66.61
2019-03-04T17:20:21.185Z,66.78
2019-03-04T17:21:21.205Z,67.12
2019-03-04T17:22:21.175Z,67.53
2019-03-04T17:23:21.201Z,67.33
2019-03-04T17:24:21.136Z,67.12
2019-03-04T17:25:21.157Z,67.33
2019-03-04T17:26:21.112Z,67.63
2019-03-04T17:27:21.108Z,67.43
2019-03-04T17:28:21.113Z,67.63
2019-03-04T17:29:21.104Z,67.53
2019-03-04T17:30:21.075Z,67.43
2019-03-04T17:31:21.061Z,67.74
2019-03-04T17:32:21.043Z,67.74
2019-03-04T17:33:21.055Z,67.63
2019-03-04T17:34:21.025Z,67.53
2019-03-04T17:35:21.007Z,68.39
2019-03-04T17:36:21.033Z,68.80
2019-03-04T17:37:20.990Z,68.29
2019-03-04T17:38:21.000Z,68.49
2019-03-04T17:39:20.967Z,68.59
2019-03-04T17:40:20.955Z,68.80
2019-03-04T17:41:20.963Z,68.80
2019-03-04T17:42:20.943Z,68.70
2019-03-04T17:43:20.918Z,69.01
2019-03-04T17:44:20.912Z,68.59
2019-03-04T17:45:20.901Z,69.11
2019-03-04T17:46:20.924Z,69.11
2019-03-04T17:47:20.883Z,69.21
2019-03-04T17:48:20.863Z,70.04
2019-03-04T17:49:20.873Z,70.34
2019-03-04T17:50:20.840Z,69.86
2019-03-04T17:51:20.828Z,70.55
2019-03-04T17:52:20.817Z,70.07
2019-03-04T17:53:20.817Z,69.76
2019-03-04T17:54:20.817Z,70.07
2019-03-04T17:55:20.785Z,69.65
2019-03-04T17:56:20.770Z,69.52
2019-03-04T17:57:20.764Z,70.28
2019-03-04T17:58:20.747Z,69.52
2019-03-04T17:59:20.781Z,70.48
2019-03-04T18:00:20.762Z,69.62
2019-03-04T18:01:20.725Z,69.65
2019-03-04T18:02:20.702Z,69.62
2019-03-04T18:03:20.691Z,69.65
2019-03-04T18:04:20.703Z,69.73
2019-03-04T18:05:20.669Z,69.52
2019-03-04T18:06:20.690Z,69.42
2019-03-04T18:07:20.647Z,69.42
2019-03-04T18:08:20.634Z,69.62
2019-03-04T18:09:20.646Z,69.21
2019-03-04T18:10:20.615Z,68.59
2019-03-04T18:11:20.608Z,67.80
2019-03-04T18:12:20.613Z,67.15
2019-03-04T18:13:20.577Z,67.87
2019-03-04T18:14:20.591Z,67.97
2019-03-04T18:15:20.557Z,67.36
2019-03-04T18:16:20.549Z,66.87
2019-03-04T18:17:20.532Z,66.94
2019-03-04T18:18:20.533Z,66.43
2019-03-04T18:19:20.533Z,67.66
2019-03-04T18:20:20.505Z,66.53
2019-03-04T18:21:20.491Z,67.15
2019-03-04T18:22:20.477Z,67.46
2019-03-04T18:23:20.471Z,67.15
2019-03-04T18:24:20.493Z,66.74
2019-03-04T18:25:20.444Z,66.33
2019-03-04T18:26:20.433Z,65.40
2019-03-04T18:27:20.421Z,65.40
2019-03-04T18:28:20.416Z,65.61
2019-03-04T18:29:20.423Z,66.02
2019-03-04T18:30:20.389Z,65.81
2019-03-04T18:31:20.413Z,66.22
2019-03-04T18:32:20.396Z,65.92
2019-03-04T18:33:20.357Z,66.02
2019-03-04T18:34:20.346Z,66.56
2019-03-04T18:35:20.358Z,66.84
2019-03-04T18:36:20.328Z,66.87
2019-03-04T18:37:20.329Z,67.39
2019-03-04T18:38:20.303Z,67.08
2019-03-04T18:39:20.291Z,66.67
2019-03-04T18:40:20.299Z,66.67
2019-03-04T18:41:20.268Z,65.81
2019-03-04T18:42:20.258Z,65.95
2019-03-04T18:43:20.257Z,66.74
2019-03-04T18:44:20.233Z,65.84
2019-03-04T18:45:20.251Z,66.46
2019-03-04T18:46:20.210Z,66.05
2019-03-04T18:47:20.200Z,65.74
2019-03-04T18:48:20.187Z,65.74
2019-03-04T18:49:20.194Z,65.81
2019-03-04T18:50:20.189Z,65.53
2019-03-04T18:51:20.158Z,66.05
2019-03-04T18:52:20.148Z,65.95
2019-03-04T18:53:20.132Z,66.87
2019-03-04T18:54:20.129Z,66.67
2019-03-04T18:55:20.160Z,66.46
2019-03-04T18:56:22.199Z,66.67
2019-03-04T18:57:20.103Z,66.67
2019-03-04T18:58:20.076Z,66.97
2019-03-04T18:59:20.076Z,66.87
2019-03-04T19:00:20.078Z,67.08
2019-03-04T19:01:20.054Z,67.49
2019-03-04T19:02:20.042Z,67.49
2019-03-04T19:03:20.021Z,67.49
2019-03-04T19:04:20.015Z,67.18
2019-03-04T19:05:20.027Z,67.39
2019-03-04T19:06:19.989Z,67.39
2019-03-04T19:07:19.984Z,68.21
2019-03-04T19:08:19.987Z,68.32
2019-03-04T19:09:19.954Z,67.90
2019-03-04T19:10:19.941Z,67.93
2019-03-04T19:11:19.953Z,67.32
2019-03-04T19:12:19.918Z,67.39
2019-03-04T19:13:19.936Z,67.39
2019-03-04T19:14:19.895Z,67.49
2019-03-04T19:15:19.889Z,67.49
2019-03-04T19:16:19.896Z,67.49
2019-03-04T19:17:19.873Z,67.39
2019-03-04T19:18:19.850Z,67.18
2019-03-04T19:19:19.842Z,66.77
2019-03-04T19:20:19.831Z,67.08
2019-03-04T19:21:19.844Z,67.08
2019-03-04T19:22:20.457Z,67.18
2019-03-04T19:23:19.810Z,66.87
2019-03-04T19:24:19.783Z,67.49
2019-03-04T19:25:19.774Z,67.60
2019-03-04T19:26:19.782Z,67.49
2019-03-04T19:27:19.751Z,67.60
2019-03-04T19:28:19.739Z,67.29
2019-03-04T19:29:19.781Z,67.29
2019-03-04T19:30:19.719Z,67.08
2019-03-04T19:31:19.728Z,67.42
2019-03-04T19:32:19.693Z,67.63
2019-03-04T19:33:19.685Z,67.63
2019-03-04T19:34:19.672Z,67.42
2019-03-04T19:35:19.721Z,67.21
2019-03-04T19:36:19.674Z,67.32
2019-03-04T19:37:19.637Z,67.32
2019-03-04T19:38:19.630Z,67.52
2019-03-04T19:39:19.638Z,67.00
2019-03-04T19:40:19.602Z,67.00
2019-03-04T19:41:19.609Z,67.21
2019-03-04T19:42:19.604Z,67.93
2019-03-04T19:43:19.572Z,68.14
2019-03-04T19:44:19.563Z,67.86
2019-03-04T19:45:19.547Z,67.93
2019-03-04T19:46:19.536Z,67.76
2019-03-04T19:47:19.572Z,68.38
2019-03-04T19:48:19.513Z,68.48
2019-03-04T19:49:19.506Z,69.41
2019-03-04T19:50:19.495Z,68.90
2019-03-04T19:51:19.481Z,69.20
2019-03-04T19:52:19.493Z,69.44
2019-03-04T19:53:19.483Z,69.72
2019-03-04T19:54:19.446Z,69.31
2019-03-04T19:55:19.435Z,69.20
2019-03-04T19:56:19.422Z,69.03
2019-03-04T19:57:19.437Z,69.62
2019-03-04T19:58:19.400Z,70.37
2019-03-04T19:59:19.404Z,70.27
2019-03-04T20:00:19.386Z,70.27
2019-03-04T20:01:19.368Z,70.27
2019-03-04T20:02:19.378Z,70.27
2019-03-04T20:03:19.343Z,70.78
2019-03-04T20:04:19.331Z,70.40
2019-03-04T20:05:19.345Z,71.23
2019-03-04T20:06:19.318Z,71.54
2019-03-04T20:07:19.320Z,71.33
2019-03-04T20:08:19.287Z,71.64
2019-03-04T20:09:19.279Z,71.95
2019-03-04T20:10:19.269Z,71.85
2019-03-04T20:11:19.285Z,72.40
2019-03-04T20:12:19.265Z,72.06
2019-03-04T20:13:19.229Z,72.16
2019-03-04T20:14:19.243Z,72.16
2019-03-04T20:15:19.226Z,72.47
2019-03-04T20:16:19.201Z,71.71
2019-03-04T20:17:19.192Z,71.61
2019-03-04T20:18:19.195Z,72.13
2019-03-04T20:19:19.162Z,71.81
2019-03-04T20:20:19.158Z,71.92
2019-03-04T20:21:19.149Z,72.02
2019-03-04T20:22:19.130Z,71.99
2019-03-04T20:23:19.161Z,71.81
2019-03-04T20:24:19.115Z,72.19
2019-03-04T20:25:19.098Z,71.68
2019-03-04T20:26:19.086Z,71.37
2019-03-04T20:27:19.072Z,71.68
2019-03-04T20:28:19.089Z,71.68
2019-03-04T20:29:19.070Z,71.58
2019-03-04T20:30:19.038Z,71.64
2019-03-04T20:31:19.028Z,71.64
2019-03-04T20:32:19.033Z,71.23
2019-03-04T20:33:19.030Z,71.23
2019-03-04T20:34:18.993Z,70.82
2019-03-04T20:35:19.019Z,71.03
2019-03-04T20:36:18.974Z,70.92
2019-03-04T20:37:18.960Z,71.34
2019-03-04T20:38:18.970Z,71.23
2019-03-04T20:39:18.941Z,71.85
2019-03-04T20:40:18.924Z,71.44
2019-03-04T20:41:18.930Z,71.85
2019-03-04T20:42:18.904Z,72.06
2019-03-04T20:43:18.919Z,72.47
2019-03-04T20:44:18.879Z,72.50
2019-03-04T20:45:18.866Z,72.58
2019-03-04T20:46:18.855Z,72.40
2019-03-04T20:47:18.897Z,73.12
2019-03-04T20:48:18.857Z,73.19
2019-03-04T20:49:18.827Z,73.33
2019-03-04T20:50:18.813Z,73.33
2019-03-04T20:51:18.800Z,73.74
2019-03-04T20:52:18.788Z,73.85
2019-03-04T20:53:18.811Z,74.33
2019-03-04T20:54:18.770Z,73.85
2019-03-04T20:55:18.757Z,74.12
2019-03-04T20:56:18.744Z,73.54
2019-03-04T20:57:18.733Z,74.02
2019-03-04T20:58:18.745Z,73.30
2019-03-04T20:59:18.727Z,73.60
2019-03-04T21:00:18.702Z,72.88
2019-03-04T21:01:18.689Z,73.09
2019-03-04T21:02:18.679Z,72.54
2019-03-04T21:03:18.691Z,72.33
2019-03-04T21:04:18.656Z,72.23
2019-03-04T21:05:18.751Z,72.23
2019-03-04T21:06:18.637Z,72.54
2019-03-04T21:07:18.628Z,72.54
2019-03-04T21:08:18.636Z,72.44
2019-03-04T21:09:18.601Z,71.95
2019-03-04T21:10:18.591Z,72.64
2019-03-04T21:11:18.600Z,72.75
2019-03-04T21:12:18.572Z,72.44
2019-03-04T21:13:18.583Z,72.75
2019-03-04T21:14:18.551Z,72.64
2019-03-04T21:15:18.558Z,72.54
2019-03-04T21:16:18.522Z,72.64
2019-03-04T21:17:18.559Z,73.05
2019-03-04T21:18:18.502Z,73.26
2019-03-04T21:19:18.518Z,73.16
2019-03-04T21:20:18.481Z,73.26
2019-03-04T21:21:18.468Z,73.26
2019-03-04T21:22:18.457Z,73.26
2019-03-04T21:23:18.465Z,73.57
2019-03-04T21:24:18.457Z,73.81
2019-03-04T21:25:18.424Z,73.81
2019-03-04T21:26:18.433Z,73.91
2019-03-04T21:27:18.403Z,74.43
2019-03-04T21:28:18.388Z,74.22
2019-03-04T21:29:18.402Z,74.43
2019-03-04T21:30:18.401Z,75.05
2019-03-04T21:31:18.355Z,74.43
2019-03-04T21:32:18.341Z,75.05
2019-03-04T21:33:18.330Z,74.63
2019-03-04T21:34:18.343Z,74.43
2019-03-04T21:35:18.323Z,74.53
2019-03-04T21:36:18.328Z,74.33
2019-03-04T21:37:18.298Z,75.36
2019-03-04T21:38:18.274Z,75.15
2019-03-04T21:39:18.302Z,74.84
2019-03-04T21:40:18.251Z,75.46
2019-03-04T21:41:18.242Z,75.46
2019-03-04T21:42:18.244Z,74.22
2019-03-04T21:43:18.217Z,75.46
2019-03-04T21:44:18.230Z,74.74
2019-03-04T21:45:18.193Z,74.74
2019-03-04T21:46:18.186Z,74.84
2019-03-04T21:47:18.174Z,74.95
2019-03-04T21:48:18.223Z,74.74
2019-03-04T21:49:18.173Z,74.43
2019-03-04T21:50:18.139Z,74.22
2019-03-04T21:51:18.130Z,74.12
2019-03-04T21:52:20.506Z,73.60